createdAt,value
2018-06-20T00:03:40.018Z,57.10
2018-06-20T00:08:48.905Z,57.10
2018-06-20T00:13:53.558Z,57.00
2018-06-20T00:18:57.202Z,57.30
2018-06-20T00:24:01.104Z,57.90
2018-06-20T00:29:05.004Z,58.60
2018-06-20T00:34:08.746Z,58.60
2018-06-20T00:39:15.134Z,58.90
2018-06-20T00:44:18.768Z,58.90
2018-06-20T00:49:22.412Z,59.60
2018-06-20T00:54:26.659Z,59.70
2018-06-20T00:59:31.013Z,59.70
2018-06-20T01:04:35.089Z,60.10
2018-06-20T01:09:38.785Z,60.00
2018-06-20T01:19:45.722Z,60.00
2018-06-20T01:24:49.359Z,60.00
2018-06-20T01:29:53.004Z,60.10
2018-06-20T01:34:56.749Z,60.20
2018-06-20T01:40:01.076Z,59.90
2018-06-20T01:45:04.879Z,60.70
2018-06-20T01:50:08.802Z,61.00
2018-06-20T01:55:14.615Z,60.60
2018-06-20T02:00:18.264Z,61.00
2018-06-20T02:05:23.149Z,61.00
2018-06-20T02:10:26.858Z,61.20
2018-06-20T02:15:30.519Z,61.80
2018-06-20T02:20:34.164Z,61.40
2018-06-20T02:25:38.104Z,61.20
2018-06-20T02:30:42.193Z,61.40
2018-06-20T02:35:50.839Z,61.70
2018-06-20T02:40:54.616Z,61.70
2018-06-20T02:45:58.281Z,62.00
2018-06-20T02:51:01.988Z,62.60
2018-06-20T02:56:06.691Z,62.70
2018-06-20T03:01:10.326Z,62.80
2018-06-20T03:06:14.963Z,63.00
2018-06-20T03:11:19.607Z,63.30
2018-06-20T03:16:23.963Z,63.20
2018-06-20T03:21:27.619Z,63.40
2018-06-20T03:26:31.269Z,63.10
2018-06-20T03:31:35.016Z,63.30
2018-06-20T03:36:40.937Z,63.50
2018-06-20T03:46:49.226Z,63.20
2018-06-20T03:51:52.889Z,63.30
2018-06-20T03:56:56.653Z,63.70
2018-06-20T04:02:00.647Z,64.90
2018-06-20T04:07:04.941Z,64.70
2018-06-20T04:12:08.848Z,64.40
2018-06-20T04:17:12.488Z,65.50
2018-06-20T04:22:16.468Z,64.80
2018-06-20T04:27:20.198Z,64.40
2018-06-20T04:32:23.907Z,64.60
2018-06-20T04:37:27.552Z,64.50
2018-06-20T04:42:32.021Z,64.90
2018-06-20T04:47:36.313Z,65.00
2018-06-20T04:52:39.952Z,64.60
2018-06-20T04:57:43.615Z,65.10
2018-06-20T05:02:47.372Z,65.00
2018-06-20T05:07:51.336Z,64.70
2018-06-20T05:12:58.117Z,64.50
2018-06-20T05:18:04.800Z,64.20
2018-06-20T05:23:08.888Z,64.70
2018-06-20T05:28:12.521Z,64.00
2018-06-20T05:33:16.349Z,63.30
2018-06-20T05:38:19.992Z,63.20
2018-06-20T05:43:26.677Z,62.50
2018-06-20T05:48:30.331Z,61.70
2018-06-20T05:53:33.983Z,60.70
2018-06-20T05:58:38.487Z,60.00
2018-06-20T06:03:43.192Z,59.80
2018-06-20T06:08:47.161Z,59.50
2018-06-20T06:13:50.817Z,58.90
2018-06-20T06:18:55.104Z,58.90
2018-06-20T06:23:59.792Z,58.50
2018-06-20T06:29:03.577Z,57.90
2018-06-20T06:34:07.728Z,57.20
2018-06-20T06:39:13.095Z,55.50
2018-06-20T06:44:16.787Z,54.70
2018-06-20T06:49:20.776Z,54.90
2018-06-20T06:54:24.447Z,54.40
2018-06-20T06:59:28.124Z,54.70
2018-06-20T07:04:31.858Z,54.60
2018-06-20T07:09:36.088Z,54.30
2018-06-20T07:14:40.117Z,54.80
2018-06-20T07:19:44.213Z,55.00
2018-06-20T07:24:50.266Z,54.30
2018-06-20T07:29:54.015Z,54.50
2018-06-20T07:34:57.688Z,53.00
2018-06-20T07:40:01.409Z,52.00
2018-06-20T07:45:05.515Z,52.40
2018-06-20T07:50:09.359Z,52.70
2018-06-20T07:55:14.016Z,52.70
2018-06-20T08:00:23.252Z,52.50
2018-06-20T08:05:32.123Z,51.80
2018-06-20T08:10:41.014Z,51.00
2018-06-20T08:15:50.044Z,51.40
2018-06-20T08:20:53.748Z,51.30
2018-06-20T08:25:57.788Z,50.90
2018-06-20T08:31:03.077Z,50.20
2018-06-20T08:36:06.774Z,50.00
2018-06-20T08:41:11.116Z,49.70
2018-06-20T08:46:14.784Z,49.40
2018-06-20T08:51:18.616Z,49.30
2018-06-20T08:56:22.675Z,48.30
2018-06-20T09:01:26.360Z,47.80
2018-06-20T09:06:35.880Z,47.90
2018-06-20T09:11:48.178Z,48.10
2018-06-20T09:16:58.977Z,47.70
2018-06-20T09:22:02.746Z,48.00
2018-06-20T09:27:06.402Z,47.30
2018-06-20T09:32:10.662Z,46.70
2018-06-20T09:37:14.494Z,45.30
2018-06-20T09:42:18.187Z,45.90
2018-06-20T09:47:21.949Z,44.80
2018-06-20T09:52:28.464Z,44.70
2018-06-20T09:57:35.130Z,44.70
2018-06-20T10:02:44.153Z,42.60
2018-06-20T10:07:53.112Z,40.90
2018-06-20T10:13:02.431Z,40.60
2018-06-20T10:18:06.299Z,41.90
2018-06-20T10:23:09.953Z,39.90
2018-06-20T10:28:14.111Z,40.60
2018-06-20T10:33:17.788Z,41.50
2018-06-20T10:38:22.035Z,40.00
2018-06-20T10:43:25.696Z,39.80
2018-06-20T10:48:30.315Z,38.80
2018-06-20T10:58:42.866Z,39.30
2018-06-20T11:03:51.817Z,39.00
2018-06-20T11:09:00.944Z,38.70
2018-06-20T11:14:06.471Z,37.50
2018-06-20T11:19:10.184Z,37.10
2018-06-20T11:24:14.352Z,37.10
2018-06-20T11:29:18.098Z,34.90
2018-06-20T11:34:21.762Z,35.50
2018-06-20T11:39:25.834Z,33.70
2018-06-20T11:44:29.823Z,33.90
2018-06-20T11:49:33.562Z,34.00
2018-06-20T11:54:37.220Z,33.70
2018-06-20T11:59:46.098Z,34.10
2018-06-20T12:04:55.049Z,33.50
2018-06-20T12:10:04.272Z,33.50
2018-06-20T12:15:13.318Z,32.60
2018-06-20T12:20:22.382Z,31.40
2018-06-20T12:25:32.649Z,33.80
2018-06-20T12:30:41.674Z,31.90
2018-06-20T12:35:50.688Z,30.30
2018-06-20T12:40:59.717Z,33.10
2018-06-20T12:46:23.329Z,32.10
2018-06-20T12:51:27.084Z,33.40
2018-06-20T12:56:30.760Z,32.20
2018-06-20T13:01:34.466Z,31.40
2018-06-20T13:06:38.797Z,31.30
2018-06-20T13:11:43.077Z,30.00
2018-06-20T13:16:48.354Z,31.20
2018-06-20T13:21:52.028Z,29.00
2018-06-20T13:26:55.786Z,31.30
2018-06-20T13:32:04.920Z,28.30
2018-06-20T13:37:13.787Z,29.30
2018-06-20T13:42:22.865Z,29.30
2018-06-20T13:47:31.865Z,29.50
2018-06-20T13:52:35.557Z,29.00
2018-06-20T13:57:39.257Z,28.30
2018-06-20T14:02:43.764Z,28.30
2018-06-20T14:07:47.411Z,28.00
2018-06-20T14:12:51.151Z,28.80
2018-06-20T14:17:54.872Z,28.30
2018-06-20T14:23:07.199Z,28.00
2018-06-20T14:28:13.468Z,27.80
2018-06-20T14:33:23.971Z,28.70
2018-06-20T14:38:35.444Z,28.30
2018-06-20T14:43:46.472Z,28.00
2018-06-20T14:53:57.609Z,27.90
2018-06-20T14:59:05.179Z,26.40
2018-06-20T15:04:08.909Z,26.80
2018-06-20T15:09:12.548Z,27.10
2018-06-20T15:14:20.556Z,26.90
2018-06-20T15:19:27.054Z,26.60
2018-06-20T15:24:31.501Z,26.60
2018-06-20T15:29:40.580Z,26.70
2018-06-20T15:39:53.916Z,26.90
2018-06-20T15:44:57.698Z,26.50
2018-06-20T15:50:01.429Z,26.50
2018-06-20T15:55:05.115Z,26.60
2018-06-20T16:00:09.653Z,26.70
2018-06-20T16:05:14.985Z,26.60
2018-06-20T16:10:19.316Z,26.20
2018-06-20T16:15:26.382Z,26.40
2018-06-20T16:20:35.516Z,27.00
2018-06-20T16:25:44.778Z,26.30
2018-06-20T16:30:50.944Z,26.60
2018-06-20T16:35:54.799Z,26.50
2018-06-20T16:41:04.713Z,27.60
2018-06-20T16:46:11.596Z,27.00
2018-06-20T16:51:15.301Z,27.70
2018-06-20T16:56:19.228Z,28.30
2018-06-20T17:01:28.423Z,27.10
2018-06-20T17:06:32.313Z,27.80
2018-06-20T17:11:35.969Z,27.40
2018-06-20T17:16:46.453Z,27.70
2018-06-20T17:21:58.507Z,28.00
2018-06-20T17:27:04.018Z,28.90
2018-06-20T17:32:07.734Z,28.00
2018-06-20T17:37:11.987Z,29.10
2018-06-20T17:42:15.641Z,28.90
2018-06-20T17:47:19.569Z,28.90
2018-06-20T17:52:23.236Z,29.10
2018-06-20T17:57:26.927Z,29.20
2018-06-20T18:02:30.723Z,29.90
2018-06-20T18:07:39.594Z,29.70
2018-06-20T18:12:49.096Z,30.70
2018-06-20T18:17:52.786Z,31.20
2018-06-20T18:22:56.964Z,32.10
2018-06-20T18:28:00.791Z,33.20
2018-06-20T18:33:06.484Z,34.30
2018-06-20T18:38:14.024Z,35.60
2018-06-20T18:43:20.171Z,36.70
2018-06-20T18:48:27.007Z,37.80
2018-06-20T18:53:33.096Z,39.30
2018-06-20T18:58:44.082Z,39.90
2018-06-20T19:04:51.792Z,40.60
2018-06-20T19:09:58.750Z,40.20
2018-06-20T19:15:05.117Z,42.50
2018-06-20T19:20:10.577Z,43.20
2018-06-20T19:25:16.330Z,43.70
2018-06-20T19:30:22.134Z,44.40
2018-06-20T19:35:28.055Z,44.70
2018-06-20T19:40:33.914Z,45.00
2018-06-20T19:45:40.195Z,45.30
2018-06-20T19:50:45.882Z,45.30
2018-06-20T19:55:49.894Z,45.80
2018-06-20T20:00:55.318Z,44.40
2018-06-20T20:11:08.743Z,45.70
2018-06-20T20:16:18.900Z,46.40
2018-06-20T20:21:24.133Z,46.50
2018-06-20T20:26:30.496Z,46.80
2018-06-20T20:31:36.229Z,46.80
2018-06-20T20:36:43.882Z,47.00
2018-06-20T20:41:53.474Z,47.50
2018-06-20T20:47:02.295Z,47.60
2018-06-20T20:52:11.879Z,48.10
2018-06-20T20:57:20.057Z,48.60
2018-06-20T21:02:28.145Z,48.90
2018-06-20T21:07:36.511Z,49.00
2018-06-20T21:12:44.534Z,49.00
2018-06-20T21:17:52.715Z,49.60
2018-06-20T21:23:02.747Z,49.40
2018-06-20T21:28:14.445Z,50.00
2018-06-20T21:33:21.482Z,50.30
2018-06-20T21:38:28.673Z,50.90
2018-06-20T21:43:39.048Z,50.90
2018-06-20T21:48:46.991Z,51.30
2018-06-20T21:53:50.923Z,51.80
2018-06-20T21:58:54.643Z,51.80
2018-06-20T22:03:58.324Z,52.00
2018-06-20T22:09:08.187Z,52.20
2018-06-20T22:14:11.930Z,52.50
2018-06-20T22:19:17.035Z,52.70
2018-06-20T22:24:20.887Z,53.70
2018-06-20T22:29:24.853Z,53.40
2018-06-20T22:34:29.537Z,53.80
2018-06-20T22:39:36.459Z,54.20
2018-06-20T22:44:43.292Z,54.30
2018-06-20T22:49:49.947Z,54.40
2018-06-20T22:55:05.702Z,54.70
2018-06-20T23:00:09.434Z,54.80
2018-06-20T23:05:13.243Z,55.20
2018-06-20T23:10:17.512Z,55.80
2018-06-20T23:15:21.617Z,55.90
2018-06-20T23:20:25.283Z,55.80
2018-06-20T23:25:28.946Z,56.20
2018-06-20T23:30:32.669Z,56.40
2018-06-20T23:35:36.400Z,56.30
2018-06-20T23:40:40.889Z,56.50
2018-06-20T23:45:45.507Z,56.70
2018-06-20T23:50:49.528Z,57.30
2018-06-20T23:55:54.064Z,57.80
